Time;durP1;ratioP1;P1;durP2;ratioP2;P2;SDS_P1;SDS_P2;PMS_P1;PMS_P2;Temp;Humidity;BMP_temperature;BMP_pressure;BME280_temperature;BME280_humidity;BME280_pressure;Samples;Min_cycle;Max_cycle;Signal;HPM_P1;HPM_P2
2023/09/11 00:02:11;;;;;;;11.90;8.85;;;;;;;;;;5055012;28;20056;-91
2023/09/11 00:04:39;;;;;;;9.55;7.53;;;;;;;;;;5052544;28;20669;-90
2023/09/11 00:07:09;;;;;;;17.85;9.20;;;;;;;;;;5058685;28;20059;-90
2023/09/11 00:09:36;;;;;;;10.57;8.88;;;;;;;;;;5071361;28;20043;-90
2023/09/11 00:12:04;;;;;;;11.52;9.00;;;;;;;;;;5038423;28;20045;-91
2023/09/11 00:14:33;;;;;;;15.65;9.15;;;;;;;;;;5052155;28;20043;-90
2023/09/11 00:17:01;;;;;;;11.60;8.65;;;;;;;;;;5032740;28;20064;-90
2023/09/11 00:19:33;;;;;;;10.23;7.72;;;;;;;;;;5046154;28;20045;-90
2023/09/11 00:22:03;;;;;;;9.82;8.68;;;;;;;;;;5044788;28;20056;-91
2023/09/11 00:24:30;;;;;;;10.88;8.40;;;;;;;;;;5033062;28;20045;-90
2023/09/11 00:26:58;;;;;;;11.20;8.30;;;;;;;;;;5053283;28;20055;-90
2023/09/11 00:29:28;;;;;;;11.73;7.82;;;;;;;;;;5053310;28;20052;-90
2023/09/11 00:31:57;;;;;;;10.40;7.40;;;;;;;;;;5059174;28;20047;-90
2023/09/11 00:34:24;;;;;;;16.75;9.07;;;;;;;;;;5029639;28;20082;-90
2023/09/11 00:36:51;;;;;;;13.15;8.27;;;;;;;;;;5053942;28;20047;-90
2023/09/11 00:39:19;;;;;;;10.25;7.13;;;;;;;;;;5047754;28;20140;-90
2023/09/11 00:41:49;;;;;;;10.30;7.72;;;;;;;;;;5047896;28;20051;-90
2023/09/11 00:44:16;;;;;;;16.98;8.35;;;;;;;;;;5036781;28;20055;-90
2023/09/11 00:46:43;;;;;;;10.13;8.35;;;;;;;;;;5025767;28;20060;-91
2023/09/11 00:49:12;;;;;;;10.80;9.02;;;;;;;;;;5041403;28;20043;-90
2023/09/11 00:51:40;;;;;;;8.68;7.57;;;;;;;;;;5034317;28;20432;-90
2023/09/11 00:54:10;;;;;;;10.88;8.63;;;;;;;;;;5060621;28;20536;-91
2023/09/11 00:56:37;;;;;;;12.25;9.13;;;;;;;;;;5059315;28;20056;-90
2023/09/11 00:59:05;;;;;;;7.57;6.85;;;;;;;;;;5044358;28;20041;-90
2023/09/11 01:01:32;;;;;;;9.95;7.78;;;;;;;;;;5052432;28;20041;-90
2023/09/11 01:04:02;;;;;;;16.60;8.75;;;;;;;;;;5033804;28;20508;-90
2023/09/11 01:06:31;;;;;;;19.70;9.43;;;;;;;;;;5051752;28;20053;-90
2023/09/11 01:08:59;;;;;;;12.10;9.25;;;;;;;;;;5044612;28;20037;-90
2023/09/11 01:11:26;;;;;;;10.60;8.13;;;;;;;;;;5071785;28;20045;-90
2023/09/11 01:13:54;;;;;;;14.73;8.77;;;;;;;;;;5056995;28;20423;-90
2023/09/11 01:16:25;;;;;;;11.75;9.68;;;;;;;;;;5029643;28;20156;-91
2023/09/11 01:18:55;;;;;;;10.52;8.55;;;;;;;;;;5065321;28;20044;-90
2023/09/11 01:22:00;;;;;;;9.68;8.15;;;;;;;;;;5032772;28;20049;-90
2023/09/11 01:24:37;;;;;;;8.60;7.72;;;;;;;;;;5035128;28;20052;-90
2023/09/11 01:27:28;;;;;;;11.43;8.32;;;;;;;;;;5049664;28;20060;-92
2023/09/11 01:29:57;;;;;;;9.65;8.30;;;;;;;;;;5033155;28;20520;-91
2023/09/11 01:32:25;;;;;;;10.75;8.88;;;;;;;;;;5029190;28;20063;-90
2023/09/11 01:34:53;;;;;;;9.80;7.63;;;;;;;;;;5029141;28;20425;-90
2023/09/11 01:37:20;;;;;;;10.00;8.05;;;;;;;;;;5043334;28;21454;-90
2023/09/11 01:39:48;;;;;;;10.05;9.00;;;;;;;;;;5045891;28;20053;-90
2023/09/11 01:42:20;;;;;;;10.75;8.65;;;;;;;;;;5032587;28;20055;-90
2023/09/11 01:44:48;;;;;;;13.57;8.05;;;;;;;;;;5028123;28;20049;-90
2023/09/11 01:47:19;;;;;;;16.05;8.80;;;;;;;;;;5045556;28;20516;-90
2023/09/11 01:49:47;;;;;;;10.15;7.70;;;;;;;;;;5064221;28;20048;-90
2023/09/11 01:52:17;;;;;;;11.43;8.05;;;;;;;;;;5024714;28;20056;-90
2023/09/11 01:54:44;;;;;;;12.55;7.53;;;;;;;;;;5030076;28;20044;-91
2023/09/11 01:57:14;;;;;;;12.57;8.43;;;;;;;;;;5037607;28;20044;-90
2023/09/11 01:59:41;;;;;;;9.93;8.05;;;;;;;;;;5038688;28;20075;-90
2023/09/11 02:02:09;;;;;;;12.52;9.50;;;;;;;;;;5033493;28;20063;-91
2023/09/11 02:04:37;;;;;;;11.40;9.75;;;;;;;;;;5058340;28;20048;-90
2023/09/11 02:07:05;;;;;;;10.93;9.05;;;;;;;;;;5053618;28;20049;-90
2023/09/11 02:09:35;;;;;;;9.65;8.68;;;;;;;;;;5035220;28;20044;-90
2023/09/11 02:12:02;;;;;;;11.25;8.30;;;;;;;;;;5046083;28;20049;-91
2023/09/11 02:14:29;;;;;;;11.60;9.00;;;;;;;;;;5036330;28;20045;-91
2023/09/11 02:17:02;;;;;;;9.05;8.23;;;;;;;;;;5045599;28;20524;-91
2023/09/11 02:19:29;;;;;;;11.13;9.02;;;;;;;;;;5054591;28;20040;-90
2023/09/11 02:21:59;;;;;;;12.82;8.40;;;;;;;;;;5052528;28;20044;-89
2023/09/11 02:24:26;;;;;;;10.30;7.85;;;;;;;;;;5033800;28;20056;-90
2023/09/11 02:26:54;;;;;;;11.20;8.38;;;;;;;;;;5048787;28;20048;-90
2023/09/11 02:29:21;;;;;;;9.98;7.90;;;;;;;;;;5050306;28;20052;-90
2023/09/11 02:31:51;;;;;;;10.65;7.55;;;;;;;;;;5047226;28;20432;-89
2023/09/11 02:34:21;;;;;;;10.88;8.32;;;;;;;;;;5050208;28;20709;-90
2023/09/11 02:36:50;;;;;;;15.93;8.30;;;;;;;;;;5038356;28;20501;-90
2023/09/11 02:39:19;;;;;;;9.60;8.60;;;;;;;;;;5033900;28;20509;-90
2023/09/11 02:41:46;;;;;;;12.38;8.77;;;;;;;;;;5028061;28;20060;-90
2023/09/11 02:44:14;;;;;;;12.40;8.38;;;;;;;;;;5053789;28;20040;-90
2023/09/11 02:46:44;;;;;;;27.08;10.80;;;;;;;;;;5071584;28;20048;-90
2023/09/11 02:49:11;;;;;;;14.50;8.85;;;;;;;;;;5042422;28;20048;-90
2023/09/11 02:51:39;;;;;;;12.68;8.05;;;;;;;;;;5051024;28;20044;-90
2023/09/11 02:54:06;;;;;;;7.43;6.72;;;;;;;;;;5039179;28;20044;-90
2023/09/11 02:56:37;;;;;;;8.05;7.25;;;;;;;;;;5053903;28;20041;-90
2023/09/11 02:59:05;;;;;;;13.40;8.50;;;;;;;;;;5034090;28;20043;-90
2023/09/11 03:01:32;;;;;;;12.32;9.18;;;;;;;;;;5038031;28;20048;-90
2023/09/11 03:03:59;;;;;;;10.38;8.15;;;;;;;;;;5055088;28;20531;-90
2023/09/11 03:06:26;;;;;;;17.48;8.73;;;;;;;;;;5032384;28;20066;-90
2023/09/11 03:08:54;;;;;;;10.43;7.97;;;;;;;;;;5053050;28;20497;-90
2023/09/11 03:11:21;;;;;;;12.30;8.40;;;;;;;;;;5039530;28;20084;-89
2023/09/11 03:13:50;;;;;;;10.15;8.27;;;;;;;;;;5038671;28;20052;-90
2023/09/11 03:16:18;;;;;;;9.70;8.15;;;;;;;;;;5027831;28;20068;-90
2023/09/11 03:18:53;;;;;;;9.80;7.97;;;;;;;;;;5071586;28;20041;-90
2023/09/11 03:21:20;;;;;;;10.18;8.23;;;;;;;;;;5032290;28;20052;-89
2023/09/11 03:23:48;;;;;;;10.00;7.40;;;;;;;;;;5060909;28;20049;-90
2023/09/11 03:26:16;;;;;;;10.70;6.97;;;;;;;;;;5026763;28;20044;-90
2023/09/11 03:28:49;;;;;;;10.95;8.25;;;;;;;;;;5029370;28;20072;-90
2023/09/11 03:31:18;;;;;;;12.10;9.48;;;;;;;;;;5029245;28;20056;-90
2023/09/11 03:33:46;;;;;;;10.50;7.43;;;;;;;;;;5053107;28;20060;-90
2023/09/11 03:36:17;;;;;;;12.10;8.52;;;;;;;;;;5051748;28;20045;-90
2023/09/11 03:38:47;;;;;;;12.88;9.95;;;;;;;;;;5033225;28;20520;-89
2023/09/11 03:41:15;;;;;;;10.45;8.80;;;;;;;;;;5051045;28;20709;-90
2023/09/11 03:43:45;;;;;;;35.90;9.75;;;;;;;;;;5042359;28;20048;-90
2023/09/11 03:46:15;;;;;;;14.57;8.63;;;;;;;;;;5037530;28;20040;-90
2023/09/11 03:48:48;;;;;;;10.63;8.85;;;;;;;;;;5031174;28;20049;-90
2023/09/11 03:51:17;;;;;;;9.05;7.50;;;;;;;;;;5052290;28;20055;-90
2023/09/11 03:53:45;;;;;;;9.75;8.77;;;;;;;;;;5042176;28;20049;-89
2023/09/11 03:56:16;;;;;;;10.98;7.65;;;;;;;;;;5043147;28;20041;-90
2023/09/11 03:58:45;;;;;;;14.18;8.35;;;;;;;;;;5034111;28;20059;-89
2023/09/11 04:01:14;;;;;;;10.90;9.68;;;;;;;;;;5032933;28;20040;-90
2023/09/11 04:03:42;;;;;;;10.13;8.40;;;;;;;;;;5032955;28;20052;-90
2023/09/11 04:06:11;;;;;;;12.63;9.48;;;;;;;;;;5051687;28;20060;-89
2023/09/11 04:08:39;;;;;;;10.57;9.10;;;;;;;;;;5037591;28;20052;-89
2023/09/11 04:11:06;;;;;;;10.65;8.48;;;;;;;;;;5029147;28;20057;-90
2023/09/11 04:13:34;;;;;;;9.35;8.13;;;;;;;;;;5036830;28;20053;-90
2023/09/11 04:16:02;;;;;;;9.63;6.95;;;;;;;;;;5048567;28;20052;-90
2023/09/11 04:18:29;;;;;;;9.80;8.02;;;;;;;;;;5052768;28;20041;-90
2023/09/11 04:21:01;;;;;;;7.85;7.05;;;;;;;;;;5048751;28;20048;-89
2023/09/11 04:23:30;;;;;;;9.35;7.53;;;;;;;;;;5034180;28;20428;-89
2023/09/11 04:25:57;;;;;;;9.27;8.38;;;;;;;;;;5036311;28;20440;-89
2023/09/11 04:28:25;;;;;;;9.88;7.78;;;;;;;;;;5053128;28;20056;-89
2023/09/11 04:30:55;;;;;;;13.50;10.13;;;;;;;;;;5043173;28;20045;-90
2023/09/11 04:33:22;;;;;;;12.57;9.95;;;;;;;;;;5033864;28;20056;-90
2023/09/11 04:35:51;;;;;;;9.98;8.95;;;;;;;;;;5024617;28;20048;-90
2023/09/11 04:38:21;;;;;;;10.15;9.15;;;;;;;;;;5035633;28;20066;-90
2023/09/11 04:40:57;;;;;;;12.32;9.57;;;;;;;;;;5027730;28;20417;-90
2023/09/11 04:43:25;;;;;;;13.35;9.13;;;;;;;;;;5036572;28;20053;-90
2023/09/11 04:45:55;;;;;;;8.93;6.50;;;;;;;;;;5033236;28;20409;-90
2023/09/11 04:48:25;;;;;;;10.02;8.63;;;;;;;;;;5044718;28;20045;-90
2023/09/11 04:50:52;;;;;;;8.90;7.72;;;;;;;;;;5044607;28;20445;-92
2023/09/11 04:53:20;;;;;;;15.00;7.40;;;;;;;;;;5031415;28;20052;-90
2023/09/11 04:55:47;;;;;;;10.73;8.77;;;;;;;;;;5052378;28;20049;-90
2023/09/11 04:58:16;;;;;;;14.75;8.45;;;;;;;;;;5033077;28;20603;-90
2023/09/11 05:00:44;;;;;;;14.10;8.82;;;;;;;;;;5052710;28;20040;-90
2023/09/11 05:03:12;;;;;;;11.02;9.80;;;;;;;;;;5028301;28;20072;-90
2023/09/11 05:05:40;;;;;;;8.98;8.10;;;;;;;;;;5046125;28;20118;-90
2023/09/11 05:08:09;;;;;;;10.23;8.07;;;;;;;;;;5045473;28;20509;-90
2023/09/11 05:10:41;;;;;;;11.07;8.82;;;;;;;;;;5029232;28;20049;-90
2023/09/11 05:13:08;;;;;;;11.25;8.73;;;;;;;;;;5033164;28;20421;-89
2023/09/11 05:15:40;;;;;;;15.02;11.15;;;;;;;;;;5034448;28;20052;-90
2023/09/11 05:18:11;;;;;;;13.15;8.27;;;;;;;;;;5030632;28;20056;-89
2023/09/11 05:20:38;;;;;;;13.25;9.93;;;;;;;;;;5029783;28;20045;-89
2023/09/11 05:23:06;;;;;;;7.57;6.78;;;;;;;;;;5026636;28;20051;-90
2023/09/11 05:25:37;;;;;;;15.30;9.48;;;;;;;;;;5047615;28;20067;-89
2023/09/11 05:28:05;;;;;;;13.73;9.18;;;;;;;;;;5044413;28;20053;-89
2023/09/11 05:30:32;;;;;;;10.45;8.07;;;;;;;;;;5027852;28;20041;-89
2023/09/11 05:33:01;;;;;;;9.93;8.63;;;;;;;;;;5068186;28;20051;-90
2023/09/11 05:35:31;;;;;;;10.73;9.63;;;;;;;;;;5043359;28;20059;-90
2023/09/11 05:37:59;;;;;;;14.55;9.68;;;;;;;;;;5033428;28;20055;-90
2023/09/11 05:40:26;;;;;;;9.52;8.25;;;;;;;;;;5046471;28;20055;-89
2023/09/11 05:42:58;;;;;;;14.70;9.35;;;;;;;;;;5035345;28;20044;-90
2023/09/11 05:45:28;;;;;;;10.68;9.57;;;;;;;;;;5037359;28;20531;-90
2023/09/11 05:47:58;;;;;;;8.35;7.18;;;;;;;;;;5028618;28;20059;-90
2023/09/11 05:50:27;;;;;;;12.07;9.77;;;;;;;;;;5050127;28;20048;-91
2023/09/11 05:52:54;;;;;;;9.75;8.20;;;;;;;;;;5046680;28;20056;-90
2023/09/11 05:55:24;;;;;;;9.05;7.47;;;;;;;;;;5043144;28;20052;-90
2023/09/11 05:57:51;;;;;;;11.93;7.47;;;;;;;;;;5062428;28;20053;-91
2023/09/11 06:00:19;;;;;;;13.00;7.60;;;;;;;;;;5068739;28;20048;-90
2023/09/11 06:02:49;;;;;;;12.55;6.93;;;;;;;;;;5065885;28;20052;-90
2023/09/11 06:05:16;;;;;;;12.00;7.20;;;;;;;;;;5064306;28;20048;-91
2023/09/11 06:07:45;;;;;;;11.40;7.40;;;;;;;;;;5041761;28;20053;-92
2023/09/11 06:10:13;;;;;;;11.63;8.73;;;;;;;;;;5058390;28;20047;-91
2023/09/11 06:12:40;;;;;;;12.85;8.02;;;;;;;;;;5051935;28;20067;-91
2023/09/11 06:15:08;;;;;;;11.32;6.20;;;;;;;;;;5052550;28;20424;-91
2023/09/11 06:17:36;;;;;;;8.23;6.30;;;;;;;;;;5046087;28;20059;-91
2023/09/11 06:20:08;;;;;;;8.63;5.47;;;;;;;;;;5049167;28;20047;-90
2023/09/11 06:22:36;;;;;;;11.57;7.05;;;;;;;;;;5033628;28;20485;-91
2023/09/11 06:25:08;;;;;;;9.82;6.40;;;;;;;;;;5052246;28;20052;-91
2023/09/11 06:27:35;;;;;;;10.65;6.43;;;;;;;;;;5045348;28;20661;-91
2023/09/11 06:30:05;;;;;;;7.32;6.57;;;;;;;;;;5047308;28;20504;-90
2023/09/11 06:32:32;;;;;;;7.60;6.60;;;;;;;;;;5048727;28;20553;-90
2023/09/11 06:35:01;;;;;;;11.90;6.40;;;;;;;;;;5051368;28;20059;-90
2023/09/11 06:37:29;;;;;;;9.85;6.70;;;;;;;;;;5047913;28;20040;-91
2023/09/11 06:39:56;;;;;;;9.63;7.35;;;;;;;;;;5031252;28;20049;-91
2023/09/11 06:42:27;;;;;;;9.48;7.28;;;;;;;;;;5024916;28;20045;-90
2023/09/11 06:44:55;;;;;;;7.80;6.93;;;;;;;;;;5045729;28;20056;-90
2023/09/11 06:47:25;;;;;;;8.95;6.85;;;;;;;;;;5047156;28;20492;-91
2023/09/11 06:49:52;;;;;;;9.80;6.78;;;;;;;;;;5047793;28;20056;-90
2023/09/11 06:52:20;;;;;;;9.40;7.22;;;;;;;;;;5063684;28;20528;-91
2023/09/11 06:54:47;;;;;;;8.65;7.15;;;;;;;;;;5045936;28;20048;-91
2023/09/11 06:57:15;;;;;;;7.60;6.65;;;;;;;;;;5049055;28;20040;-91
2023/09/11 06:59:43;;;;;;;7.85;6.70;;;;;;;;;;5065207;28;20531;-91
2023/09/11 07:02:14;;;;;;;10.75;5.82;;;;;;;;;;5047372;28;20040;-92
2023/09/11 07:04:43;;;;;;;6.47;5.80;;;;;;;;;;5065530;28;22039;-91
2023/09/11 07:07:11;;;;;;;6.60;5.85;;;;;;;;;;5062531;28;20521;-92
2023/09/11 07:09:38;;;;;;;8.43;6.10;;;;;;;;;;5051129;28;20048;-92
2023/09/11 07:12:06;;;;;;;7.65;6.90;;;;;;;;;;5031118;28;20048;-92
2023/09/11 07:14:34;;;;;;;8.73;6.45;;;;;;;;;;5051283;28;20041;-91
2023/09/11 07:17:04;;;;;;;9.30;6.30;;;;;;;;;;5049295;28;20052;-92
2023/09/11 07:19:32;;;;;;;12.27;7.78;;;;;;;;;;5035962;28;20056;-92
2023/09/11 07:22:03;;;;;;;9.90;7.57;;;;;;;;;;5049770;28;20053;-91
2023/09/11 07:24:30;;;;;;;8.40;6.85;;;;;;;;;;5031401;28;20531;-92
2023/09/11 07:27:00;;;;;;;10.27;6.55;;;;;;;;;;5051720;28;20056;-91
2023/09/11 07:29:30;;;;;;;10.32;7.45;;;;;;;;;;5070896;28;20044;-91
2023/09/11 07:32:00;;;;;;;8.70;6.40;;;;;;;;;;5051555;28;20052;-92
2023/09/11 07:34:31;;;;;;;8.43;6.00;;;;;;;;;;5052635;28;20044;-91
2023/09/11 07:36:59;;;;;;;13.18;6.25;;;;;;;;;;5053426;28;20060;-91
2023/09/11 07:39:27;;;;;;;8.15;6.50;;;;;;;;;;5050227;28;20049;-91
2023/09/11 07:41:54;;;;;;;7.63;5.85;;;;;;;;;;5070770;28;20040;-92
2023/09/11 07:44:21;;;;;;;7.10;5.93;;;;;;;;;;5072136;28;20052;-92
2023/09/11 07:46:51;;;;;;;8.60;6.93;;;;;;;;;;5068130;28;20467;-91
2023/09/11 07:49:18;;;;;;;10.05;6.57;;;;;;;;;;5056784;28;20394;-92
2023/09/11 07:51:49;;;;;;;10.38;7.07;;;;;;;;;;5056473;28;20416;-92
2023/09/11 07:54:19;;;;;;;6.28;5.60;;;;;;;;;;5054711;28;20547;-92
2023/09/11 07:56:52;;;;;;;7.88;6.05;;;;;;;;;;5050633;28;20044;-92
2023/09/11 07:59:25;;;;;;;12.13;6.75;;;;;;;;;;5070158;28;20053;-92
2023/09/11 08:01:52;;;;;;;14.13;6.47;;;;;;;;;;5041005;28;20056;-92
2023/09/11 08:04:23;;;;;;;7.07;6.38;;;;;;;;;;5036775;28;20067;-92
2023/09/11 08:06:52;;;;;;;7.20;6.13;;;;;;;;;;5053493;28;20417;-92
2023/09/11 08:09:28;;;;;;;7.65;5.60;;;;;;;;;;5074190;28;20048;-91
2023/09/11 08:12:00;;;;;;;10.38;6.60;;;;;;;;;;5037192;28;20044;-92
2023/09/11 08:14:35;;;;;;;11.75;6.18;;;;;;;;;;5047638;28;20052;-92
2023/09/11 08:17:20;;;;;;;8.05;5.60;;;;;;;;;;5049931;28;20048;-92
2023/09/11 08:19:51;;;;;;;6.95;5.57;;;;;;;;;;5052935;28;20424;-92
2023/09/11 08:22:24;;;;;;;6.55;5.45;;;;;;;;;;5046154;28;20059;-90
2023/09/11 08:24:51;;;;;;;6.18;5.55;;;;;;;;;;5046785;28;20051;-93
2023/09/11 08:27:20;;;;;;;8.02;6.47;;;;;;;;;;5050543;28;20041;-92
2023/09/11 08:29:47;;;;;;;7.25;6.13;;;;;;;;;;5034197;28;20052;-92
2023/09/11 08:32:15;;;;;;;7.70;6.20;;;;;;;;;;5064262;28;20055;-91
2023/09/11 08:34:42;;;;;;;8.73;5.82;;;;;;;;;;5052675;28;20045;-92
2023/09/11 08:37:10;;;;;;;14.00;6.43;;;;;;;;;;5052221;28;20060;-92
2023/09/11 08:39:39;;;;;;;9.05;6.57;;;;;;;;;;5050702;28;20507;-92
2023/09/11 08:42:10;;;;;;;7.15;5.18;;;;;;;;;;5025294;28;20045;-92
2023/09/11 08:44:40;;;;;;;6.43;5.38;;;;;;;;;;5033779;28;20064;-92
2023/09/11 08:47:10;;;;;;;9.77;6.50;;;;;;;;;;5026058;28;20061;-92
2023/09/11 08:49:42;;;;;;;9.35;6.45;;;;;;;;;;5031017;28;20048;-92
2023/09/11 08:52:12;;;;;;;8.57;5.22;;;;;;;;;;5032430;28;20052;-92
2023/09/11 08:54:43;;;;;;;10.15;6.10;;;;;;;;;;5042758;28;20080;-92
2023/09/11 08:57:11;;;;;;;10.88;6.95;;;;;;;;;;5052375;28;20437;-92
2023/09/11 08:59:43;;;;;;;9.57;6.28;;;;;;;;;;5061675;28;20048;-91
2023/09/11 09:02:11;;;;;;;8.70;6.50;;;;;;;;;;5045037;28;20044;-92
2023/09/11 09:04:39;;;;;;;8.40;5.97;;;;;;;;;;5052484;28;20048;-92
2023/09/11 09:07:07;;;;;;;7.72;5.85;;;;;;;;;;5036024;28;20430;-92
2023/09/11 09:09:37;;;;;;;6.72;6.13;;;;;;;;;;5031204;28;20051;-92
2023/09/11 09:12:07;;;;;;;8.02;6.72;;;;;;;;;;5049005;28;20501;-92
2023/09/11 09:14:38;;;;;;;12.75;6.57;;;;;;;;;;5032902;28;20513;-92
2023/09/11 09:17:06;;;;;;;9.80;6.43;;;;;;;;;;5052226;28;20051;-92
2023/09/11 09:19:34;;;;;;;6.68;6.07;;;;;;;;;;5069415;28;20044;-93
2023/09/11 09:22:12;;;;;;;7.07;5.85;;;;;;;;;;5039203;28;20044;-92
2023/09/11 09:24:51;;;;;;;9.50;6.75;;;;;;;;;;5026241;28;20060;-92
2023/09/11 09:27:20;;;;;;;10.77;6.45;;;;;;;;;;5036993;28;20428;-92
2023/09/11 09:29:48;;;;;;;10.25;6.63;;;;;;;;;;5030506;28;20052;-92
2023/09/11 09:32:16;;;;;;;9.15;7.00;;;;;;;;;;5064089;28;20057;-92
2023/09/11 09:34:49;;;;;;;17.95;9.70;;;;;;;;;;5040439;28;20064;-93
2023/09/11 09:37:18;;;;;;;9.25;6.85;;;;;;;;;;5071813;28;20412;-92
2023/09/11 09:39:48;;;;;;;8.15;6.78;;;;;;;;;;5051113;28;20051;-92
2023/09/11 09:42:18;;;;;;;9.40;7.15;;;;;;;;;;5052874;28;20060;-92
2023/09/11 09:44:52;;;;;;;8.25;6.93;;;;;;;;;;5046387;28;20118;-92
2023/09/11 09:47:21;;;;;;;7.50;6.13;;;;;;;;;;5052142;28;20059;-93
2023/09/11 09:49:53;;;;;;;6.35;5.68;;;;;;;;;;5069876;28;20063;-92
2023/09/11 09:52:31;;;;;;;7.55;5.63;;;;;;;;;;5032512;28;20056;-92
2023/09/11 09:58:21;;;;;;;9.48;5.70;;;;;;;;;;5049158;28;20048;-92
2023/09/11 10:01:42;;;;;;;7.60;6.82;;;;;;;;;;5029721;28;20045;-93
2023/09/11 10:04:25;;;;;;;7.07;6.40;;;;;;;;;;5011647;28;20087;-92
2023/09/11 10:06:59;;;;;;;8.45;6.53;;;;;;;;;;5055402;28;20045;-92
2023/09/11 10:09:35;;;;;;;10.80;5.32;;;;;;;;;;5054406;28;20513;-93
2023/09/11 10:15:50;;;;;;;8.15;5.45;;;;;;;;;;4681772;22;19921;-85
2023/09/11 10:19:33;;;;;;;17.48;5.60;;;;;;;;;;5063545;28;20049;-85
2023/09/11 10:27:23;;;;;;;12.02;6.53;;;;;;;;;;4906792;29;20426;-85
2023/09/11 10:33:29;;;;;;;10.90;5.40;;;;;;;;;;5053372;28;20056;-83
2023/09/11 10:36:02;;;;;;;6.10;4.82;;;;;;;;;;5050702;28;20055;-83
2023/09/11 10:38:36;;;;;;;10.48;5.47;;;;;;;;;;5073980;28;20048;-83
2023/09/11 10:41:06;;;;;;;7.00;5.10;;;;;;;;;;5067254;28;20051;-83
2023/09/11 10:43:40;;;;;;;12.73;6.07;;;;;;;;;;5070918;28;20052;-83
2023/09/11 10:46:46;;;;;;;6.88;5.13;;;;;;;;;;5076318;28;20044;-83
2023/09/11 10:49:40;;;;;;;6.95;6.35;;;;;;;;;;5066777;28;20426;-83
2023/09/11 10:52:47;;;;;;;6.22;5.35;;;;;;;;;;5069675;28;20526;-83
2023/09/11 10:58:18;;;;;;;9.30;5.18;;;;;;;;;;5054964;28;20056;-83
2023/09/11 11:00:45;;;;;;;9.50;7.10;;;;;;;;;;5048340;28;20049;-83
2023/09/11 11:03:15;;;;;;;8.05;6.55;;;;;;;;;;5071057;28;20060;-83
2023/09/11 11:05:44;;;;;;;6.72;5.93;;;;;;;;;;5072674;28;20068;-83
2023/09/11 11:08:12;;;;;;;13.27;5.35;;;;;;;;;;5053352;28;20057;-83
2023/09/11 11:10:42;;;;;;;7.75;5.55;;;;;;;;;;5068440;28;20059;-83
2023/09/11 11:13:11;;;;;;;6.72;5.60;;;;;;;;;;5053747;28;20059;-83
2023/09/11 11:15:38;;;;;;;6.47;5.13;;;;;;;;;;5073175;28;20040;-83
2023/09/11 11:18:09;;;;;;;6.97;5.85;;;;;;;;;;5051968;28;20045;-83
2023/09/11 11:20:37;;;;;;;6.45;5.80;;;;;;;;;;5052171;28;20052;-83
2023/09/11 11:23:26;;;;;;;6.25;4.80;;;;;;;;;;5065908;28;20045;-83
2023/09/11 11:26:00;;;;;;;6.78;5.78;;;;;;;;;;5068317;28;20048;-83
2023/09/11 11:28:39;;;;;;;6.30;5.68;;;;;;;;;;5056949;28;20056;-83
2023/09/11 11:31:09;;;;;;;10.70;6.00;;;;;;;;;;5074979;28;20055;-83
2023/09/11 11:33:42;;;;;;;8.63;5.30;;;;;;;;;;5055584;28;20044;-83
2023/09/11 11:36:10;;;;;;;9.35;5.20;;;;;;;;;;5067432;28;20033;-83
2023/09/11 11:38:41;;;;;;;18.20;6.25;;;;;;;;;;5069802;28;20406;-83
2023/09/11 11:41:09;;;;;;;6.80;4.63;;;;;;;;;;5053302;28;20402;-83
2023/09/11 11:43:36;;;;;;;8.55;4.85;;;;;;;;;;5054159;28;20044;-83
2023/09/11 11:46:06;;;;;;;8.43;5.57;;;;;;;;;;5066204;28;20041;-83
2023/09/11 11:48:33;;;;;;;10.63;5.20;;;;;;;;;;5072349;28;20040;-83
2023/09/11 11:51:03;;;;;;;13.05;6.28;;;;;;;;;;5067362;28;20049;-83
2023/09/11 11:53:32;;;;;;;9.18;5.28;;;;;;;;;;5053406;28;20486;-84
2023/09/11 11:56:03;;;;;;;7.00;5.20;;;;;;;;;;5065368;28;20041;-84
2023/09/11 11:58:35;;;;;;;8.85;4.63;;;;;;;;;;5073292;28;20052;-84
2023/09/11 12:01:04;;;;;;;13.65;4.50;;;;;;;;;;5054057;28;20045;-84
2023/09/11 12:03:47;;;;;;;5.95;5.45;;;;;;;;;;5071097;28;20040;-83
2023/09/11 12:09:05;;;;;;;7.38;4.93;;;;;;;;;;5189557;22;20048;-92
2023/09/11 12:11:38;;;;;;;9.27;6.25;;;;;;;;;;5075822;28;20463;-92
2023/09/11 12:14:08;;;;;;;12.05;5.57;;;;;;;;;;5069367;28;20183;-93
2023/09/11 12:16:36;;;;;;;9.38;5.53;;;;;;;;;;5080699;28;20058;-92
2023/09/11 12:19:06;;;;;;;8.15;5.18;;;;;;;;;;5083823;28;20057;-92
2023/09/11 12:21:33;;;;;;;8.48;5.70;;;;;;;;;;5089828;28;20051;-91
2023/09/11 12:24:01;;;;;;;6.75;5.38;;;;;;;;;;5078373;28;20041;-92
2023/09/11 12:26:29;;;;;;;8.43;5.97;;;;;;;;;;5078031;28;20052;-91
2023/09/11 12:28:58;;;;;;;10.15;5.85;;;;;;;;;;5083999;28;20452;-92
2023/09/11 12:31:25;;;;;;;8.52;6.32;;;;;;;;;;5080666;28;20055;-92
2023/09/11 12:33:58;;;;;;;12.68;5.05;;;;;;;;;;5097105;28;20444;-92
2023/09/11 12:36:25;;;;;;;10.13;4.88;;;;;;;;;;5089776;28;20048;-92
2023/09/11 12:38:53;;;;;;;7.03;5.47;;;;;;;;;;5074066;28;20051;-92
2023/09/11 12:41:25;;;;;;;6.72;4.88;;;;;;;;;;5083857;28;20118;-92
2023/09/11 12:43:52;;;;;;;11.55;6.15;;;;;;;;;;5086946;28;20051;-92
2023/09/11 12:46:21;;;;;;;9.45;5.82;;;;;;;;;;5093049;28;20040;-92
2023/09/11 12:48:48;;;;;;;11.43;5.03;;;;;;;;;;5089158;28;20048;-91
2023/09/11 12:51:16;;;;;;;9.80;4.88;;;;;;;;;;5093248;28;20048;-92
2023/09/11 12:53:45;;;;;;;7.72;5.10;;;;;;;;;;5092485;28;20056;-92
2023/09/11 12:56:13;;;;;;;7.47;5.40;;;;;;;;;;5090495;28;20043;-92
2023/09/11 13:03:06;;;;;;;8.73;5.45;;;;;;;;;;5065717;28;20052;-93
2023/09/11 13:05:33;;;;;;;16.10;5.25;;;;;;;;;;5078887;28;20048;-91
2023/09/11 13:08:08;;;;;;;10.15;5.00;;;;;;;;;;5078184;28;20048;-92
2023/09/11 13:11:50;;;;;;;;;;;;;;;;;;;;;
2023/09/11 13:21:56;;;;;;;18.33;5.75;;;;;;;;;;5043897;28;20057;-92
2023/09/11 13:32:12;;;;;;;6.82;4.65;;;;;;;;;;4999488;28;20429;-93
2023/09/11 13:35:11;;;;;;;9.05;4.43;;;;;;;;;;5031325;28;20068;-91
2023/09/11 13:38:28;;;;;;;10.20;4.30;;;;;;;;;;5054318;28;20107;-92
2023/09/11 13:42:17;;;;;;;;;;;;;;;;;;;;;
2023/09/11 13:48:42;;;;;;;9.07;4.57;;;;;;;;;;5033706;28;20063;-91
2023/09/11 13:51:11;;;;;;;6.10;4.43;;;;;;;;;;5080002;28;20098;-92
2023/09/11 13:53:38;;;;;;;8.90;5.55;;;;;;;;;;5070902;28;20052;-91
2023/09/11 13:56:05;;;;;;;8.30;5.18;;;;;;;;;;5062584;28;20044;-91
2023/09/11 13:58:33;;;;;;;9.13;3.97;;;;;;;;;;5044568;28;20048;-91
2023/09/11 14:01:00;;;;;;;11.77;6.07;;;;;;;;;;5055116;28;20048;-92
2023/09/11 14:03:29;;;;;;;9.55;4.97;;;;;;;;;;5072008;28;20044;-91
2023/09/11 14:05:56;;;;;;;11.38;6.57;;;;;;;;;;5073357;28;20063;-91
2023/09/11 14:08:25;;;;;;;9.52;4.35;;;;;;;;;;5069175;28;20071;-91
2023/09/11 14:10:52;;;;;;;11.15;5.32;;;;;;;;;;5074220;28;20057;-91
2023/09/11 14:13:23;;;;;;;7.82;5.45;;;;;;;;;;5093240;28;20059;-93
2023/09/11 14:15:50;;;;;;;16.38;6.20;;;;;;;;;;5077653;28;20047;-92
2023/09/11 14:18:18;;;;;;;7.90;6.35;;;;;;;;;;5096644;28;20051;-92
2023/09/11 14:20:45;;;;;;;14.13;5.60;;;;;;;;;;5078172;28;20497;-92
2023/09/11 14:23:13;;;;;;;7.95;4.55;;;;;;;;;;5056725;28;20048;-93
2023/09/11 14:25:44;;;;;;;9.50;4.50;;;;;;;;;;5076644;28;20048;-92
2023/09/11 14:28:14;;;;;;;13.32;4.55;;;;;;;;;;5085203;28;20056;-92
2023/09/11 14:30:41;;;;;;;11.27;5.18;;;;;;;;;;5082206;28;20047;-92
2023/09/11 14:33:09;;;;;;;13.50;6.00;;;;;;;;;;5089573;28;20044;-93
2023/09/11 14:35:36;;;;;;;6.45;4.65;;;;;;;;;;5102541;28;20044;-92
2023/09/11 14:38:04;;;;;;;6.68;4.10;;;;;;;;;;5073954;28;20040;-92
2023/09/11 14:40:31;;;;;;;7.78;4.35;;;;;;;;;;5084575;28;20045;-92
2023/09/11 14:43:00;;;;;;;10.48;5.82;;;;;;;;;;5088329;28;20037;-92
2023/09/11 14:45:30;;;;;;;10.00;5.57;;;;;;;;;;5080489;28;20052;-92
2023/09/11 14:47:58;;;;;;;7.38;4.93;;;;;;;;;;5079476;28;20415;-93
2023/09/11 14:50:25;;;;;;;9.75;5.60;;;;;;;;;;5078171;28;20055;-93
2023/09/11 14:52:55;;;;;;;13.50;5.32;;;;;;;;;;5083818;28;20052;-92
2023/09/11 14:55:23;;;;;;;8.73;5.03;;;;;;;;;;5088425;28;20048;-92
2023/09/11 14:57:53;;;;;;;9.80;4.70;;;;;;;;;;5101660;28;20040;-93
2023/09/11 15:00:22;;;;;;;9.70;4.68;;;;;;;;;;5098879;28;20047;-92
2023/09/11 15:02:51;;;;;;;11.70;6.18;;;;;;;;;;5085823;28;20051;-93
2023/09/11 15:05:19;;;;;;;11.98;4.97;;;;;;;;;;5061729;28;20036;-92
2023/09/11 15:07:48;;;;;;;14.85;6.32;;;;;;;;;;5084945;28;20130;-93
2023/09/11 15:10:17;;;;;;;4.82;4.22;;;;;;;;;;5067734;28;20047;-92
2023/09/11 15:12:45;;;;;;;8.18;4.65;;;;;;;;;;5086704;28;20058;-92
2023/09/11 15:15:12;;;;;;;13.10;4.60;;;;;;;;;;5085444;28;20445;-94
2023/09/11 15:17:43;;;;;;;13.48;5.95;;;;;;;;;;5079301;28;20505;-92
2023/09/11 15:20:11;;;;;;;11.20;5.55;;;;;;;;;;5082574;28;20048;-93
2023/09/11 15:22:54;;;;;;;12.50;4.93;;;;;;;;;;5080649;28;20428;-92
2023/09/11 15:25:23;;;;;;;5.15;4.15;;;;;;;;;;5078924;28;20048;-93
2023/09/11 15:28:16;;;;;;;9.93;6.07;;;;;;;;;;5084774;28;20056;-93
2023/09/11 15:30:43;;;;;;;5.80;3.88;;;;;;;;;;5059299;28;20044;-92
2023/09/11 15:33:12;;;;;;;8.90;5.40;;;;;;;;;;5077985;28;20055;-91
2023/09/11 15:36:03;;;;;;;9.70;5.63;;;;;;;;;;5082502;28;20123;-92
2023/09/11 15:38:35;;;;;;;8.88;5.18;;;;;;;;;;5055907;28;20067;-92
2023/09/11 15:41:06;;;;;;;6.50;3.88;;;;;;;;;;5079813;28;20056;-92
2023/09/11 15:43:35;;;;;;;7.75;4.45;;;;;;;;;;5083833;28;20585;-92
2023/09/11 15:46:02;;;;;;;8.60;6.38;;;;;;;;;;5049226;28;20048;-93